createdAt,value
2023-03-13T00:01:33.216Z,2.69
2023-03-13T00:04:01.634Z,2.66
2023-03-13T00:06:34.505Z,2.77
2023-03-13T00:09:02.769Z,2.63
2023-03-13T00:11:30.425Z,2.77
2023-03-13T00:14:02.313Z,2.75
2023-03-13T00:16:34.729Z,2.72
2023-03-13T00:19:02.301Z,2.62
2023-03-13T00:21:30.094Z,2.72
2023-03-13T00:24:04.038Z,2.78
2023-03-13T00:26:32.480Z,2.65
2023-03-13T00:29:00.756Z,2.62
2023-03-13T00:31:31.431Z,2.41
2023-03-13T00:34:02.575Z,2.54
2023-03-13T00:36:32.824Z,2.71
2023-03-13T00:39:08.227Z,2.68
2023-03-13T00:41:36.178Z,2.60
2023-03-13T00:44:04.445Z,2.70
2023-03-13T00:46:32.071Z,2.41
2023-03-13T00:48:59.717Z,2.56
2023-03-13T00:51:27.662Z,2.44
2023-03-13T00:53:56.594Z,2.21
2023-03-13T00:56:24.868Z,2.23
2023-03-13T00:58:52.968Z,2.23
2023-03-13T01:01:28.782Z,2.22
2023-03-13T01:03:58.368Z,2.41
2023-03-13T01:06:27.698Z,2.08
2023-03-13T01:08:59.346Z,2.05
2023-03-13T01:11:29.500Z,2.14
2023-03-13T01:13:59.371Z,2.15
2023-03-13T01:16:29.302Z,2.21
2023-03-13T01:19:03.393Z,2.21
2023-03-13T01:21:30.989Z,2.17
2023-03-13T01:23:58.706Z,2.24
2023-03-13T01:26:27.516Z,2.31
2023-03-13T01:28:55.855Z,2.18
2023-03-13T01:31:31.961Z,2.02
2023-03-13T01:34:01.543Z,1.95
2023-03-13T01:36:31.451Z,1.90
2023-03-13T01:39:00.247Z,1.69
2023-03-13T01:41:30.093Z,1.80
2023-03-13T01:43:58.728Z,1.82
2023-03-13T01:46:32.236Z,1.92
2023-03-13T01:49:10.196Z,1.83
2023-03-13T01:52:23.972Z,1.57
2023-03-13T01:54:57.401Z,1.60
2023-03-13T01:57:37.481Z,1.60
2023-03-13T02:00:13.623Z,1.57
2023-03-13T02:02:50.010Z,1.68
2023-03-13T02:05:19.368Z,1.56
2023-03-13T02:08:11.865Z,1.53
2023-03-13T02:10:42.808Z,1.64
2023-03-13T02:13:17.473Z,1.63
2023-03-13T02:15:45.363Z,1.71
2023-03-13T02:18:13.006Z,1.79
2023-03-13T02:20:44.801Z,1.47
2023-03-13T02:23:20.512Z,1.60
2023-03-13T02:25:52.173Z,1.48
2023-03-13T02:28:34.622Z,1.55
2023-03-13T02:31:05.197Z,1.60
2023-03-13T02:33:37.944Z,1.70
2023-03-13T02:36:10.570Z,1.53
2023-03-13T02:38:51.038Z,1.73
2023-03-13T02:41:18.861Z,1.77
2023-03-13T02:43:46.864Z,1.85
2023-03-13T02:46:19.545Z,1.79
2023-03-13T02:48:57.599Z,1.61
2023-03-13T02:51:33.148Z,1.76
2023-03-13T02:54:12.573Z,1.88
2023-03-13T02:56:42.007Z,1.84
2023-03-13T02:59:11.091Z,1.84
2023-03-13T03:01:41.966Z,1.69
2023-03-13T03:04:09.771Z,1.74
2023-03-13T03:06:37.492Z,1.84
2023-03-13T03:09:07.408Z,1.88
2023-03-13T03:11:38.742Z,1.77
2023-03-13T03:14:10.331Z,1.66
2023-03-13T03:16:43.005Z,1.68
2023-03-13T03:19:15.511Z,1.74
2023-03-13T03:21:43.474Z,1.61
2023-03-13T03:24:11.105Z,1.43
2023-03-13T03:26:38.641Z,1.47
2023-03-13T03:29:12.349Z,1.46
2023-03-13T03:31:44.571Z,1.39
2023-03-13T03:34:13.228Z,1.57
2023-03-13T03:36:40.877Z,1.46
2023-03-13T03:39:08.433Z,1.47
2023-03-13T03:41:37.575Z,1.31
2023-03-13T03:44:06.278Z,1.29
2023-03-13T03:46:48.978Z,1.15
2023-03-13T03:49:17.140Z,1.18
2023-03-13T03:51:44.818Z,1.36
2023-03-13T03:54:15.306Z,1.41
2023-03-13T03:56:43.026Z,1.25
2023-03-13T03:59:16.656Z,1.21
2023-03-13T04:01:57.392Z,1.18
2023-03-13T04:04:27.380Z,1.22
2023-03-13T04:07:02.443Z,1.19
2023-03-13T04:09:32.313Z,1.08
2023-03-13T04:12:02.077Z,1.04
2023-03-13T04:14:33.732Z,1.25
2023-03-13T04:17:04.955Z,1.18
2023-03-13T04:19:34.375Z,1.33
2023-03-13T04:22:02.555Z,1.33
2023-03-13T04:24:30.568Z,1.44
2023-03-13T04:26:58.640Z,1.28
2023-03-13T04:29:27.031Z,1.46
2023-03-13T04:32:03.573Z,1.50
2023-03-13T04:34:54.867Z,1.48
2023-03-13T04:37:46.194Z,1.55
2023-03-13T04:40:34.030Z,1.67
2023-03-13T04:43:17.629Z,1.84
2023-03-13T04:46:11.356Z,1.80
2023-03-13T04:48:51.896Z,1.99
2023-03-13T04:51:38.076Z,2.03
2023-03-13T04:54:28.918Z,1.93
2023-03-13T04:57:08.742Z,2.18
2023-03-13T05:00:08.267Z,2.11
2023-03-13T05:02:53.358Z,2.26
2023-03-13T05:05:29.289Z,2.37
2023-03-13T05:08:18.063Z,2.58
2023-03-13T05:14:38.727Z,2.64
2023-03-13T05:17:15.655Z,2.55
2023-03-13T05:20:11.460Z,2.88
2023-03-13T05:23:03.352Z,2.79
2023-03-13T05:25:56.745Z,2.81
2023-03-13T05:28:43.150Z,2.91
2023-03-13T05:31:10.925Z,2.78
2023-03-13T05:33:57.105Z,2.89
2023-03-13T05:36:43.596Z,2.84
2023-03-13T05:39:41.166Z,3.38
2023-03-13T05:42:45.171Z,3.18
2023-03-13T05:45:32.673Z,3.32
2023-03-13T05:48:12.146Z,3.08
2023-03-13T05:51:00.703Z,3.31
2023-03-13T05:53:54.186Z,3.07
2023-03-13T05:56:53.185Z,3.44
2023-03-13T05:59:46.989Z,3.36
2023-03-13T06:02:41.024Z,3.30
2023-03-13T06:05:13.955Z,3.62
2023-03-13T06:07:41.667Z,3.68
2023-03-13T06:10:10.655Z,3.31
2023-03-13T06:12:38.877Z,3.24
2023-03-13T06:15:11.695Z,3.37
2023-03-13T06:17:56.148Z,3.48
2023-03-13T06:20:24.060Z,3.22
2023-03-13T06:22:52.831Z,3.39
2023-03-13T06:25:20.682Z,3.49
2023-03-13T06:27:48.278Z,3.58
2023-03-13T06:30:16.271Z,3.52
2023-03-13T06:32:44.402Z,3.55
2023-03-13T06:35:12.399Z,3.65
2023-03-13T06:37:41.279Z,3.63
2023-03-13T06:40:09.852Z,3.80
2023-03-13T06:42:38.599Z,4.12
2023-03-13T06:45:06.696Z,3.98
2023-03-13T06:47:34.540Z,3.99
2023-03-13T06:50:02.110Z,4.16
2023-03-13T06:52:41.397Z,3.90
2023-03-13T06:55:11.272Z,4.09
2023-03-13T06:57:39.968Z,4.13
2023-03-13T07:00:11.513Z,3.87
2023-03-13T07:02:39.142Z,4.19
2023-03-13T07:05:08.692Z,4.13
2023-03-13T07:07:36.838Z,4.01
2023-03-13T07:10:05.369Z,4.23
2023-03-13T07:12:35.817Z,4.38
2023-03-13T07:15:04.690Z,4.39
2023-03-13T07:17:35.301Z,4.33
2023-03-13T07:20:10.746Z,4.38
2023-03-13T07:22:38.433Z,4.86
2023-03-13T07:25:07.319Z,4.64
2023-03-13T07:27:35.818Z,4.70
2023-03-13T07:30:03.598Z,4.73
2023-03-13T07:32:33.434Z,4.64
2023-03-13T07:35:03.434Z,4.67
2023-03-13T07:37:31.254Z,4.57
2023-03-13T07:39:59.093Z,4.41
2023-03-13T07:42:29.329Z,4.77
2023-03-13T07:44:56.924Z,4.69
2023-03-13T07:47:24.465Z,4.77
2023-03-13T07:49:54.023Z,4.80
2023-03-13T07:52:23.191Z,5.00
2023-03-13T07:54:51.265Z,5.04
2023-03-13T07:57:20.840Z,5.19
2023-03-13T07:59:48.473Z,4.98
2023-03-13T08:02:17.207Z,5.07
2023-03-13T08:04:44.956Z,5.26
2023-03-13T08:07:12.816Z,5.43
2023-03-13T08:09:41.567Z,5.32
2023-03-13T08:12:11.256Z,5.37
2023-03-13T08:14:39.113Z,5.10
2023-03-13T08:17:07.448Z,5.31
2023-03-13T08:19:38.652Z,5.31
2023-03-13T08:22:06.202Z,5.54
2023-03-13T08:24:33.967Z,5.48
2023-03-13T08:27:02.750Z,5.54
2023-03-13T08:29:30.515Z,5.61
2023-03-13T08:31:58.201Z,5.83
2023-03-13T08:34:25.794Z,5.90
2023-03-13T08:36:53.439Z,5.85
2023-03-13T08:39:21.856Z,5.73
2023-03-13T08:41:49.546Z,5.92
2023-03-13T08:44:21.433Z,5.73
2023-03-13T08:46:52.569Z,5.73
2023-03-13T08:49:20.237Z,6.05
2023-03-13T08:51:48.838Z,5.72
2023-03-13T08:54:16.527Z,5.74
2023-03-13T08:56:44.753Z,6.04
2023-03-13T08:59:12.861Z,5.96
2023-03-13T09:01:40.373Z,5.86
2023-03-13T09:04:08.124Z,5.84
2023-03-13T09:06:36.653Z,6.15
2023-03-13T09:09:10.722Z,5.95
2023-03-13T09:11:42.268Z,6.22
2023-03-13T09:14:12.001Z,5.84
2023-03-13T09:16:42.486Z,6.07
2023-03-13T09:19:11.114Z,6.00
2023-03-13T09:21:38.666Z,5.87
2023-03-13T09:24:06.661Z,6.00
2023-03-13T09:26:34.243Z,6.02
2023-03-13T09:29:02.201Z,6.57
2023-03-13T09:31:30.920Z,6.75
2023-03-13T09:34:02.175Z,6.68
2023-03-13T09:36:30.174Z,6.93
2023-03-13T09:38:58.719Z,6.66
2023-03-13T09:41:40.778Z,6.88
2023-03-13T09:44:19.649Z,6.81
2023-03-13T09:47:00.103Z,7.19
2023-03-13T09:49:35.056Z,7.19
2023-03-13T09:52:16.952Z,7.31
2023-03-13T09:55:03.605Z,7.15
2023-03-13T09:58:08.731Z,7.16
2023-03-13T10:00:44.694Z,7.30
2023-03-13T10:03:29.652Z,7.20
2023-03-13T10:06:01.729Z,6.96
2023-03-13T10:08:34.101Z,7.48
2023-03-13T10:11:10.385Z,7.23
2023-03-13T10:13:39.330Z,7.20
2023-03-13T10:16:10.172Z,7.75
2023-03-13T10:18:37.867Z,7.81
2023-03-13T10:21:20.134Z,7.39
2023-03-13T10:23:58.121Z,7.73
2023-03-13T10:26:29.053Z,7.86
2023-03-13T10:28:57.367Z,7.80
2023-03-13T10:31:32.466Z,7.91
2023-03-13T10:34:46.618Z,7.84
2023-03-13T10:37:15.561Z,8.01
2023-03-13T10:39:47.389Z,7.73
2023-03-13T10:42:21.892Z,7.92
2023-03-13T10:44:50.450Z,8.02
2023-03-13T10:47:18.031Z,7.86
2023-03-13T10:49:53.120Z,7.70
2023-03-13T10:52:32.531Z,7.91
2023-03-13T10:55:01.615Z,8.26
2023-03-13T10:57:30.952Z,8.32
2023-03-13T10:59:58.989Z,8.49
2023-03-13T11:02:39.184Z,8.64
2023-03-13T11:05:25.555Z,8.65
2023-03-13T11:07:53.635Z,8.71
2023-03-13T11:10:29.994Z,8.34
2023-03-13T11:13:00.116Z,8.40
2023-03-13T11:15:44.595Z,8.30
2023-03-13T11:18:15.702Z,8.47
2023-03-13T11:20:45.249Z,8.86
2023-03-13T11:23:34.099Z,8.71
2023-03-13T11:26:10.842Z,8.76
2023-03-13T11:29:19.520Z,8.18
2023-03-13T11:31:49.393Z,8.69
2023-03-13T11:34:40.270Z,8.87
2023-03-13T11:37:14.968Z,8.56
2023-03-13T11:39:47.533Z,8.80
2023-03-13T11:42:52.573Z,8.95
2023-03-13T11:45:35.565Z,9.17
2023-03-13T11:48:26.901Z,9.42
2023-03-13T11:51:20.580Z,9.15
2023-03-13T11:54:13.823Z,9.80
2023-03-13T11:56:44.063Z,9.96
2023-03-13T11:59:30.001Z,10.09
2023-03-13T12:02:01.175Z,9.08
2023-03-13T12:04:35.622Z,9.09
2023-03-13T12:07:06.909Z,9.54
2023-03-13T12:10:05.938Z,9.97
2023-03-13T12:12:41.385Z,10.17
2023-03-13T12:15:21.904Z,9.84
2023-03-13T12:18:00.870Z,10.42
2023-03-13T12:20:42.338Z,10.79
2023-03-13T12:23:42.320Z,10.91
2023-03-13T12:26:15.312Z,10.91
2023-03-13T12:28:49.435Z,11.14
2023-03-13T12:31:30.360Z,11.09
2023-03-13T12:34:18.886Z,12.13
2023-03-13T12:36:55.709Z,12.42
2023-03-13T12:39:41.977Z,12.18
2023-03-13T12:42:17.330Z,12.03
2023-03-13T12:44:44.901Z,12.79
2023-03-13T12:47:31.320Z,12.34
2023-03-13T12:50:32.525Z,13.01
2023-03-13T12:53:34.798Z,12.92
2023-03-13T12:56:44.017Z,13.07
2023-03-13T12:59:16.416Z,13.80
2023-03-13T13:01:51.784Z,14.04
2023-03-13T13:04:26.000Z,14.73
2023-03-13T13:07:05.026Z,14.69
2023-03-13T13:09:37.231Z,14.44
2023-03-13T13:12:23.306Z,14.65
2023-03-13T13:14:51.133Z,13.86
2023-03-13T13:17:39.067Z,14.26
2023-03-13T13:20:25.508Z,15.37
2023-03-13T13:22:53.802Z,14.76
2023-03-13T13:25:24.597Z,14.70
2023-03-13T13:27:52.462Z,13.87
2023-03-13T13:30:20.100Z,14.08
2023-03-13T13:32:51.784Z,15.24
2023-03-13T13:35:20.754Z,15.00
2023-03-13T13:37:49.640Z,14.28
2023-03-13T13:40:26.250Z,14.18
2023-03-13T13:42:58.203Z,12.95
2023-03-13T13:45:29.366Z,13.51
2023-03-13T13:48:15.554Z,14.66
2023-03-13T13:51:18.708Z,14.15
2023-03-13T13:53:46.226Z,14.26
2023-03-13T13:56:28.911Z,15.01
2023-03-13T13:59:24.889Z,15.01
2023-03-13T14:02:09.846Z,14.88
2023-03-13T14:04:55.806Z,14.84
2023-03-13T14:07:42.017Z,14.22
2023-03-13T14:10:40.072Z,14.67
2023-03-13T14:13:34.019Z,15.06
2023-03-13T14:16:24.383Z,15.48
2023-03-13T14:18:54.448Z,14.35
2023-03-13T14:21:25.284Z,14.60
2023-03-13T14:23:52.996Z,14.96
2023-03-13T14:26:28.464Z,15.19
2023-03-13T14:29:02.982Z,13.25
2023-03-13T14:31:35.978Z,13.98
2023-03-13T14:34:11.545Z,14.41
2023-03-13T14:37:11.168Z,13.92
2023-03-13T14:39:45.619Z,13.71
2023-03-13T14:42:14.089Z,12.87
2023-03-13T14:44:44.119Z,13.47
2023-03-13T14:47:26.884Z,12.93
2023-03-13T14:50:01.929Z,12.48
2023-03-13T14:52:34.193Z,13.05
2023-03-13T14:55:07.997Z,12.74
2023-03-13T14:57:35.834Z,12.54
2023-03-13T15:00:29.615Z,12.72
2023-03-13T15:03:13.105Z,12.79
2023-03-13T15:05:40.788Z,12.76
2023-03-13T15:08:17.482Z,12.55
2023-03-13T15:10:45.446Z,11.89
2023-03-13T15:13:19.762Z,11.47
2023-03-13T15:15:47.619Z,11.18
2023-03-13T15:18:23.523Z,11.15
2023-03-13T15:20:52.690Z,10.92
2023-03-13T15:23:20.711Z,10.58
2023-03-13T15:25:48.537Z,10.19
2023-03-13T15:28:21.443Z,9.76
2023-03-13T15:30:51.381Z,9.36
2023-03-13T15:33:22.823Z,9.20
2023-03-13T15:35:50.294Z,8.94
2023-03-13T15:38:20.633Z,8.69
2023-03-13T15:40:48.306Z,8.47
2023-03-13T15:43:17.760Z,8.18
2023-03-13T15:45:45.688Z,7.88
2023-03-13T15:48:19.736Z,7.65
2023-03-13T15:50:54.871Z,7.41
2023-03-13T15:53:27.905Z,7.10
2023-03-13T15:55:57.940Z,6.82
2023-03-13T15:58:27.552Z,6.53
2023-03-13T16:00:56.251Z,6.39
2023-03-13T16:03:25.970Z,6.24
2023-03-13T16:05:54.077Z,6.06
2023-03-13T16:08:35.235Z,5.94
2023-03-13T16:11:04.849Z,5.76
2023-03-13T16:13:33.386Z,5.61
2023-03-13T16:16:01.596Z,5.46
2023-03-13T16:18:29.352Z,5.33
2023-03-13T16:20:57.265Z,5.20
2023-03-13T16:23:24.857Z,5.08
2023-03-13T16:25:52.372Z,4.97
2023-03-13T16:28:19.921Z,4.86
2023-03-13T16:30:47.888Z,4.72
2023-03-13T16:33:15.484Z,4.64
2023-03-13T16:35:43.769Z,4.52
2023-03-13T16:38:11.278Z,4.40
2023-03-13T16:40:39.626Z,4.27
2023-03-13T16:43:07.679Z,4.15
2023-03-13T16:45:39.630Z,4.01
2023-03-13T16:48:07.380Z,4.00
2023-03-13T16:50:36.739Z,3.90
2023-03-13T16:53:04.942Z,3.83
2023-03-13T16:55:36.788Z,3.74
2023-03-13T16:58:04.784Z,3.65
2023-03-13T17:00:32.605Z,3.56
2023-03-13T17:03:01.665Z,3.52
2023-03-13T17:05:29.685Z,3.43
2023-03-13T17:07:57.252Z,3.38
2023-03-13T17:10:26.945Z,3.37
2023-03-13T17:12:54.575Z,3.32
2023-03-13T17:15:25.666Z,3.30
2023-03-13T17:17:56.176Z,3.17
2023-03-13T17:20:25.744Z,3.10
2023-03-13T17:22:56.363Z,3.06
2023-03-13T17:25:25.080Z,3.02
2023-03-13T17:27:55.892Z,2.97
2023-03-13T17:30:24.975Z,2.83
2023-03-13T17:32:52.718Z,2.78
2023-03-13T17:35:23.237Z,2.77
2023-03-13T17:37:51.036Z,2.74
2023-03-13T17:40:23.581Z,2.71
2023-03-13T17:42:51.281Z,2.63
2023-03-13T17:45:19.029Z,2.55
2023-03-13T17:47:47.226Z,2.54
2023-03-13T17:50:17.670Z,2.50
2023-03-13T17:52:51.200Z,2.46
2023-03-13T17:55:19.342Z,2.46
2023-03-13T17:57:48.470Z,2.44
2023-03-13T18:00:22.231Z,2.37
2023-03-13T18:02:50.384Z,2.34
2023-03-13T18:05:18.288Z,2.29
2023-03-13T18:07:46.323Z,2.27
2023-03-13T18:10:25.144Z,2.23
2023-03-13T18:12:53.240Z,2.21
2023-03-13T18:15:21.643Z,2.19
2023-03-13T18:17:52.012Z,2.14
2023-03-13T18:20:25.516Z,2.09
2023-03-13T18:22:54.245Z,2.06
2023-03-13T18:25:23.385Z,2.01
2023-03-13T18:27:50.974Z,2.02
2023-03-13T18:30:23.839Z,2.04
2023-03-13T18:32:51.680Z,2.01
2023-03-13T18:35:19.228Z,2.01
2023-03-13T18:37:49.686Z,2.03
2023-03-13T18:40:36.346Z,2.01
2023-03-13T18:43:06.639Z,1.98
2023-03-13T18:45:36.522Z,1.99
2023-03-13T18:48:04.180Z,1.98
2023-03-13T18:50:32.308Z,1.92
2023-03-13T18:53:00.082Z,1.95
2023-03-13T18:55:28.761Z,1.93
2023-03-13T18:57:56.538Z,1.89
2023-03-13T19:00:25.892Z,2.01
2023-03-13T19:02:53.606Z,2.07
2023-03-13T19:05:21.188Z,2.10
2023-03-13T19:07:49.836Z,2.12
2023-03-13T19:10:24.359Z,2.11
2023-03-13T19:12:58.313Z,2.07
2023-03-13T19:15:27.626Z,2.10
2023-03-13T19:17:56.359Z,2.09
2023-03-13T19:20:25.150Z,2.12
2023-03-13T19:22:54.506Z,2.13
2023-03-13T19:25:22.813Z,2.08
2023-03-13T19:27:51.683Z,2.08
2023-03-13T19:30:23.766Z,2.14
2023-03-13T19:32:57.827Z,2.13
2023-03-13T19:35:25.551Z,2.12
2023-03-13T19:37:53.190Z,2.14
2023-03-13T19:40:23.013Z,2.15
2023-03-13T19:42:50.529Z,2.15
2023-03-13T19:45:20.560Z,2.16
2023-03-13T19:47:48.296Z,2.23
2023-03-13T19:50:20.622Z,2.26
2023-03-13T19:52:48.704Z,2.29
2023-03-13T19:55:16.512Z,2.39
2023-03-13T19:57:44.630Z,2.48
2023-03-13T20:00:21.714Z,2.44
2023-03-13T20:02:58.452Z,2.44
2023-03-13T20:05:28.886Z,2.40
2023-03-13T20:07:58.862Z,2.37
2023-03-13T20:10:27.776Z,2.44
2023-03-13T20:12:58.134Z,2.50
2023-03-13T20:15:25.732Z,2.49
2023-03-13T20:17:53.332Z,2.48
2023-03-13T20:20:21.073Z,2.58
2023-03-13T20:22:50.538Z,2.62
2023-03-13T20:25:18.548Z,2.55
2023-03-13T20:27:49.818Z,2.53
2023-03-13T20:30:17.667Z,2.63
2023-03-13T20:32:57.006Z,2.66
2023-03-13T20:35:27.749Z,2.66
2023-03-13T20:37:57.546Z,2.71
2023-03-13T20:40:25.902Z,2.77
2023-03-13T20:42:53.445Z,2.77
2023-03-13T20:45:21.286Z,2.76
2023-03-13T20:47:49.688Z,2.84
2023-03-13T20:50:19.557Z,2.94
2023-03-13T20:52:48.902Z,3.02
2023-03-13T20:55:16.851Z,3.11
2023-03-13T20:57:46.362Z,3.18
2023-03-13T21:00:14.519Z,3.28
2023-03-13T21:02:42.076Z,3.28
2023-03-13T21:05:10.216Z,3.31
2023-03-13T21:07:37.900Z,3.38
2023-03-13T21:10:14.447Z,3.33
2023-03-13T21:12:42.218Z,3.34
2023-03-13T21:15:10.304Z,3.28
2023-03-13T21:17:38.467Z,3.32
2023-03-13T21:20:13.832Z,3.32
2023-03-13T21:22:42.166Z,3.41
2023-03-13T21:25:10.544Z,3.51
2023-03-13T21:27:39.177Z,3.49
2023-03-13T21:30:10.595Z,3.49
2023-03-13T21:32:39.424Z,3.46
2023-03-13T21:35:07.353Z,3.52
2023-03-13T21:37:35.645Z,3.55
2023-03-13T21:40:04.622Z,3.55
2023-03-13T21:42:34.374Z,3.47
2023-03-13T21:45:02.809Z,3.51
2023-03-13T21:47:37.392Z,3.46
2023-03-13T21:50:06.502Z,3.43
2023-03-13T21:52:40.774Z,3.38
2023-03-13T21:55:11.441Z,3.40
2023-03-13T21:57:39.954Z,3.38
2023-03-13T22:00:08.912Z,3.33
2023-03-13T22:02:37.609Z,3.36
2023-03-13T22:05:05.587Z,3.35
2023-03-13T22:07:35.357Z,3.37
2023-03-13T22:10:02.847Z,3.37
2023-03-13T22:12:37.477Z,3.39
2023-03-13T22:15:06.752Z,3.41
2023-03-13T22:17:34.850Z,3.40
2023-03-13T22:20:02.444Z,3.30
2023-03-13T22:22:31.317Z,3.22
2023-03-13T22:25:04.626Z,3.14
2023-03-13T22:27:32.760Z,3.16
2023-03-13T22:30:00.360Z,3.13
2023-03-13T22:32:28.058Z,3.14
2023-03-13T22:34:55.932Z,3.08
2023-03-13T22:37:28.882Z,3.10
2023-03-13T22:39:57.634Z,3.03
2023-03-13T22:42:26.170Z,2.98
2023-03-13T22:44:55.492Z,3.00
2023-03-13T22:47:24.787Z,2.99
2023-03-13T22:49:53.771Z,2.95
2023-03-13T22:52:23.434Z,2.89
2023-03-13T22:54:51.099Z,2.94
2023-03-13T22:57:18.607Z,2.90
2023-03-13T22:59:46.241Z,2.90
2023-03-13T23:02:13.745Z,2.88
2023-03-13T23:04:41.713Z,2.84
2023-03-13T23:07:13.365Z,2.89
2023-03-13T23:09:41.247Z,2.89
2023-03-13T23:12:09.863Z,2.94
2023-03-13T23:14:38.085Z,2.96
2023-03-13T23:17:07.000Z,2.91
2023-03-13T23:19:36.109Z,2.97
2023-03-13T23:22:04.781Z,2.95
2023-03-13T23:24:33.665Z,2.93
2023-03-13T23:27:07.930Z,2.93
2023-03-13T23:29:37.896Z,2.91
2023-03-13T23:32:07.068Z,2.98
2023-03-13T23:34:37.160Z,2.96
2023-03-13T23:37:05.374Z,2.80
2023-03-13T23:39:40.054Z,2.88
2023-03-13T23:42:08.564Z,2.90
2023-03-13T23:44:37.074Z,2.86
2023-03-13T23:47:06.015Z,2.86
2023-03-13T23:49:34.315Z,2.86
2023-03-13T23:52:04.027Z,2.72
2023-03-13T23:54:32.929Z,2.67
2023-03-13T23:57:06.488Z,2.66
2023-03-13T23:59:34.910Z,2.62
